Time;durP1;ratioP1;P1;durP2;ratioP2;P2;SDS_P1;SDS_P2;PMS_P1;PMS_P2;Temp;Humidity;BMP_temperature;BMP_pressure;BME280_temperature;BME280_humidity;BME280_pressure;Samples;Min_cycle;Max_cycle;Signal;HPM_P1;HPM_P2
2023/05/27 00:01:22;;;;;;;12.60;2.70;;;;;;;-128.00;-1.00;-1.00;97797;296;1003716;-33
2023/05/27 00:03:48;;;;;;;21.00;4.40;;;;;;;-128.00;-1.00;-1.00;97918;296;1002692;-29
2023/05/27 00:06:14;;;;;;;7.00;2.40;;;;;;;-128.00;-1.00;-1.00;97850;296;1002906;-29
2023/05/27 00:08:39;;;;;;;11.00;2.90;;;;;;;-128.00;-1.00;-1.00;97829;296;1004059;-33
2023/05/27 00:11:05;;;;;;;26.50;3.90;;;;;;;-128.00;-1.00;-1.00;97932;296;1002985;-33
2023/05/27 00:13:31;;;;;;;18.20;2.70;;;;;;;-128.00;-1.00;-1.00;97878;284;1005263;-34
2023/05/27 00:15:57;;;;;;;8.60;2.90;;;;;;;-128.00;-1.00;-1.00;97887;296;1003180;-31
2023/05/27 00:18:22;;;;;;;7.00;2.40;;;;;;;-128.00;-1.00;-1.00;97972;296;1003772;-29
2023/05/27 00:20:49;;;;;;;6.50;3.40;;;;;;;-128.00;-1.00;-1.00;97767;296;1003777;-35
2023/05/27 00:23:15;;;;;;;11.40;3.80;;;;;;;-128.00;-1.00;-1.00;97859;296;1004442;-35
2023/05/27 00:25:40;;;;;;;11.60;2.70;;;;;;;-128.00;-1.00;-1.00;97895;296;1002802;-29
2023/05/27 00:28:06;;;;;;;3.60;2.10;;;;;;;-128.00;-1.00;-1.00;97869;296;1003288;-33
2023/05/27 00:30:32;;;;;;;12.10;3.00;;;;;;;-128.00;-1.00;-1.00;97839;296;1004937;-33
2023/05/27 00:32:57;;;;;;;14.00;3.80;;;;;;;-128.00;-1.00;-1.00;97791;296;1005100;-33
2023/05/27 00:35:23;;;;;;;6.80;2.10;;;;;;;-128.00;-1.00;-1.00;97885;288;1003004;-34
2023/05/27 00:37:49;;;;;;;7.70;2.20;;;;;;;-128.00;-1.00;-1.00;97787;296;1003055;-35
2023/05/27 00:40:15;;;;;;;10.00;3.10;;;;;;;-128.00;-1.00;-1.00;97964;296;1003047;-34
2023/05/27 00:42:41;;;;;;;9.80;2.50;;;;;;;-128.00;-1.00;-1.00;97926;296;1005474;-28
2023/05/27 00:45:07;;;;;;;15.20;3.40;;;;;;;-128.00;-1.00;-1.00;97962;288;1005470;-33
2023/05/27 00:47:32;;;;;;;6.60;2.20;;;;;;;-128.00;-1.00;-1.00;97709;288;1003432;-32
2023/05/27 00:49:58;;;;;;;21.40;3.40;;;;;;;-128.00;-1.00;-1.00;97897;285;1004289;-33
2023/05/27 00:52:24;;;;;;;12.60;2.90;;;;;;;-128.00;-1.00;-1.00;98089;296;1002946;-29
2023/05/27 00:54:51;;;;;;;8.50;3.20;;;;;;;-128.00;-1.00;-1.00;97864;300;1004657;-35
2023/05/27 00:57:17;;;;;;;13.80;3.70;;;;;;;-128.00;-1.00;-1.00;97979;296;1002969;-29
2023/05/27 00:59:43;;;;;;;11.10;4.00;;;;;;;-128.00;-1.00;-1.00;97846;296;1003214;-33
2023/05/27 01:02:10;;;;;;;19.30;4.90;;;;;;;-128.00;-1.00;-1.00;97873;296;1003216;-35
2023/05/27 01:04:36;;;;;;;12.10;3.60;;;;;;;-128.00;-1.00;-1.00;97819;296;1003473;-31
2023/05/27 01:07:21;;;;;;;11.20;3.40;;;;;;;-128.00;-1.00;-1.00;97924;285;1003540;-28
2023/05/27 01:09:52;;;;;;;9.80;3.40;;;;;;;-128.00;-1.00;-1.00;97872;296;1003633;-34
2023/05/27 01:12:32;;;;;;;22.60;4.10;;;;;;;-128.00;-1.00;-1.00;97788;285;1003891;-33
2023/05/27 01:14:58;;;;;;;20.20;3.00;;;;;;;-128.00;-1.00;-1.00;97832;289;1003420;-36
2023/05/27 01:17:26;;;;;;;10.00;3.70;;;;;;;-128.00;-1.00;-1.00;97884;285;1003315;-27
2023/05/27 01:19:52;;;;;;;12.80;2.70;;;;;;;-128.00;-1.00;-1.00;97937;296;1003891;-28
2023/05/27 01:22:17;;;;;;;12.40;2.50;;;;;;;-128.00;-1.00;-1.00;97722;296;1004321;-30
2023/05/27 01:24:43;;;;;;;7.20;3.50;;;;;;;-128.00;-1.00;-1.00;97869;296;1003248;-28
2023/05/27 01:27:11;;;;;;;7.60;3.00;;;;;;;-128.00;-1.00;-1.00;97781;296;1003940;-30
2023/05/27 01:29:40;;;;;;;14.00;3.00;;;;;;;-128.00;-1.00;-1.00;97946;296;1003421;-35
2023/05/27 01:32:13;;;;;;;6.60;2.20;;;;;;;-128.00;-1.00;-1.00;97859;297;1005077;-31
2023/05/27 01:34:41;;;;;;;11.50;2.70;;;;;;;-128.00;-1.00;-1.00;97764;298;1002830;-32
2023/05/27 01:37:09;;;;;;;15.70;3.50;;;;;;;-128.00;-1.00;-1.00;97723;287;1002488;-32
2023/05/27 01:39:35;;;;;;;13.20;3.70;;;;;;;-128.00;-1.00;-1.00;97848;296;1003244;-31
2023/05/27 01:42:01;;;;;;;16.20;3.30;;;;;;;-128.00;-1.00;-1.00;97764;297;1005607;-34
2023/05/27 01:44:28;;;;;;;5.10;1.80;;;;;;;-128.00;-1.00;-1.00;97776;296;1004850;-32
2023/05/27 01:46:58;;;;;;;4.20;1.70;;;;;;;-128.00;-1.00;-1.00;97919;289;1002622;-28
2023/05/27 01:49:24;;;;;;;11.10;2.60;;;;;;;-128.00;-1.00;-1.00;97931;285;1002915;-29
2023/05/27 01:51:50;;;;;;;4.60;1.90;;;;;;;-128.00;-1.00;-1.00;97976;296;1002773;-33
2023/05/27 01:54:16;;;;;;;6.50;3.50;;;;;;;-128.00;-1.00;-1.00;97960;285;1005304;-29
2023/05/27 01:56:42;;;;;;;18.20;3.40;;;;;;;-128.00;-1.00;-1.00;97872;285;1003429;-32
2023/05/27 01:59:07;;;;;;;13.10;3.30;;;;;;;-128.00;-1.00;-1.00;97976;285;1002940;-29
2023/05/27 02:01:33;;;;;;;17.40;4.40;;;;;;;-128.00;-1.00;-1.00;97815;285;1003199;-33
2023/05/27 02:03:59;;;;;;;13.20;4.10;;;;;;;-128.00;-1.00;-1.00;97922;285;1003218;-33
2023/05/27 02:06:26;;;;;;;17.10;2.50;;;;;;;-128.00;-1.00;-1.00;97940;285;1003771;-33
2023/05/27 02:08:51;;;;;;;6.50;2.40;;;;;;;-128.00;-1.00;-1.00;97916;296;1002917;-34
2023/05/27 02:11:17;;;;;;;10.60;2.40;;;;;;;-128.00;-1.00;-1.00;97821;296;1004189;-32
2023/05/27 02:13:43;;;;;;;9.00;2.10;;;;;;;-128.00;-1.00;-1.00;97948;285;1004335;-29
2023/05/27 02:16:08;;;;;;;11.10;3.90;;;;;;;-128.00;-1.00;-1.00;97974;285;1004101;-33
2023/05/27 02:18:37;;;;;;;8.60;2.60;;;;;;;-128.00;-1.00;-1.00;97936;285;1003668;-34
2023/05/27 02:21:05;;;;;;;16.80;3.80;;;;;;;-128.00;-1.00;-1.00;97934;285;1003822;-30
2023/05/27 02:23:32;;;;;;;11.40;2.10;;;;;;;-128.00;-1.00;-1.00;97936;285;1002654;-34
2023/05/27 02:25:58;;;;;;;11.10;3.50;;;;;;;-128.00;-1.00;-1.00;97889;296;1003937;-34
2023/05/27 02:28:23;;;;;;;4.00;2.00;;;;;;;-128.00;-1.00;-1.00;98077;296;1004756;-30
2023/05/27 02:30:49;;;;;;;20.80;4.70;;;;;;;-128.00;-1.00;-1.00;97872;285;1003252;-29
2023/05/27 02:33:15;;;;;;;19.70;4.00;;;;;;;-128.00;-1.00;-1.00;97882;296;1002839;-33
2023/05/27 02:35:40;;;;;;;9.10;2.90;;;;;;;-128.00;-1.00;-1.00;97802;296;1003534;-29
2023/05/27 02:38:06;;;;;;;7.00;2.40;;;;;;;-128.00;-1.00;-1.00;97821;285;1003475;-29
2023/05/27 02:40:31;;;;;;;4.80;2.40;;;;;;;-128.00;-1.00;-1.00;97848;285;1004024;-33
2023/05/27 02:42:57;;;;;;;10.20;2.80;;;;;;;-128.00;-1.00;-1.00;97842;308;1004874;-35
2023/05/27 02:45:23;;;;;;;10.60;3.60;;;;;;;-128.00;-1.00;-1.00;97970;296;1003149;-35
2023/05/27 02:47:49;;;;;;;15.40;3.20;;;;;;;-128.00;-1.00;-1.00;97807;296;1004105;-33
2023/05/27 02:50:15;;;;;;;18.70;3.50;;;;;;;-128.00;-1.00;-1.00;97805;296;1003450;-32
2023/05/27 02:52:41;;;;;;;7.60;3.30;;;;;;;-128.00;-1.00;-1.00;97844;285;1003721;-33
2023/05/27 02:55:08;;;;;;;9.20;3.00;;;;;;;-128.00;-1.00;-1.00;97775;296;1003131;-30
2023/05/27 02:57:33;;;;;;;21.80;4.80;;;;;;;-128.00;-1.00;-1.00;97960;285;1004328;-29
2023/05/27 02:59:59;;;;;;;14.40;3.80;;;;;;;-128.00;-1.00;-1.00;97770;296;1003746;-30
2023/05/27 03:02:24;;;;;;;14.00;3.90;;;;;;;-128.00;-1.00;-1.00;97930;285;1004201;-32
2023/05/27 03:04:50;;;;;;;22.30;3.50;;;;;;;-128.00;-1.00;-1.00;97986;296;1003188;-29
2023/05/27 03:07:15;;;;;;;18.40;4.90;;;;;;;-128.00;-1.00;-1.00;97936;296;1004672;-35
2023/05/27 03:09:41;;;;;;;12.30;4.50;;;;;;;-128.00;-1.00;-1.00;97934;296;1002831;-30
2023/05/27 03:12:07;;;;;;;21.00;4.00;;;;;;;-128.00;-1.00;-1.00;97899;285;1004254;-35
2023/05/27 03:14:32;;;;;;;13.20;3.50;;;;;;;-128.00;-1.00;-1.00;97818;285;1004009;-34
2023/05/27 03:16:58;;;;;;;15.00;4.20;;;;;;;-128.00;-1.00;-1.00;97875;285;1004348;-31
2023/05/27 03:19:24;;;;;;;17.20;4.30;;;;;;;-128.00;-1.00;-1.00;97913;296;1002682;-33
2023/05/27 03:21:50;;;;;;;16.20;3.20;;;;;;;-128.00;-1.00;-1.00;97999;285;1003433;-29
2023/05/27 03:24:17;;;;;;;14.00;5.60;;;;;;;-128.00;-1.00;-1.00;97885;285;1004246;-30
2023/05/27 03:26:42;;;;;;;8.50;3.50;;;;;;;-128.00;-1.00;-1.00;97860;285;1004878;-30
2023/05/27 03:29:08;;;;;;;34.20;5.50;;;;;;;-128.00;-1.00;-1.00;98048;296;1004685;-30
2023/05/27 03:31:33;;;;;;;18.50;4.90;;;;;;;-128.00;-1.00;-1.00;97833;285;1003378;-32
2023/05/27 03:33:59;;;;;;;12.90;3.60;;;;;;;-128.00;-1.00;-1.00;97980;285;1003102;-33
2023/05/27 03:36:25;;;;;;;9.20;3.60;;;;;;;-128.00;-1.00;-1.00;97836;285;1004944;-29
2023/05/27 03:38:50;;;;;;;9.90;3.30;;;;;;;-128.00;-1.00;-1.00;97714;296;1003063;-29
2023/05/27 03:41:16;;;;;;;6.70;3.50;;;;;;;-128.00;-1.00;-1.00;97773;285;1003981;-33
2023/05/27 03:43:41;;;;;;;14.40;5.70;;;;;;;-128.00;-1.00;-1.00;97882;285;1004529;-33
2023/05/27 03:46:08;;;;;;;19.10;4.40;;;;;;;-128.00;-1.00;-1.00;97913;296;1003183;-30
2023/05/27 03:48:34;;;;;;;18.70;5.20;;;;;;;-128.00;-1.00;-1.00;97842;285;1003799;-30
2023/05/27 03:50:59;;;;;;;13.80;4.80;;;;;;;-128.00;-1.00;-1.00;97823;296;1002964;-30
2023/05/27 03:53:25;;;;;;;6.40;3.30;;;;;;;-128.00;-1.00;-1.00;97929;289;1002524;-30
2023/05/27 03:55:52;;;;;;;7.90;2.70;;;;;;;-128.00;-1.00;-1.00;97846;297;1005075;-30
2023/05/27 03:58:18;;;;;;;18.30;5.40;;;;;;;-128.00;-1.00;-1.00;97822;296;1003718;-32
2023/05/27 04:00:44;;;;;;;10.70;4.40;;;;;;;-128.00;-1.00;-1.00;97867;285;1003992;-35
2023/05/27 04:03:10;;;;;;;6.20;3.40;;;;;;;-128.00;-1.00;-1.00;97912;296;1002948;-30
2023/05/27 04:05:35;;;;;;;8.30;3.00;;;;;;;-128.00;-1.00;-1.00;97852;296;1003534;-32
2023/05/27 04:08:02;;;;;;;7.30;2.90;;;;;;;-128.00;-1.00;-1.00;97846;297;1003443;-29
2023/05/27 04:10:28;;;;;;;10.50;4.20;;;;;;;-128.00;-1.00;-1.00;97723;296;1004429;-36
2023/05/27 04:12:53;;;;;;;10.60;4.60;;;;;;;-128.00;-1.00;-1.00;97918;289;1003302;-30
2023/05/27 04:15:19;;;;;;;12.90;4.50;;;;;;;-128.00;-1.00;-1.00;97800;297;1003225;-30
2023/05/27 04:17:45;;;;;;;22.30;3.70;;;;;;;-128.00;-1.00;-1.00;97862;297;1003589;-33
2023/05/27 04:20:14;;;;;;;14.40;3.90;;;;;;;-128.00;-1.00;-1.00;97889;296;1004610;-29
2023/05/27 04:22:41;;;;;;;11.40;4.00;;;;;;;-128.00;-1.00;-1.00;97840;296;1005245;-34
2023/05/27 04:25:07;;;;;;;13.00;5.30;;;;;;;-128.00;-1.00;-1.00;97786;285;1003120;-36
2023/05/27 04:27:33;;;;;;;12.70;3.90;;;;;;;-128.00;-1.00;-1.00;97987;296;1004372;-32
2023/05/27 04:29:59;;;;;;;37.10;3.50;;;;;;;-128.00;-1.00;-1.00;97810;296;1003034;-29
2023/05/27 04:32:27;;;;;;;18.40;4.30;;;;;;;-128.00;-1.00;-1.00;97996;296;1004138;-32
2023/05/27 04:34:53;;;;;;;9.50;2.70;;;;;;;-128.00;-1.00;-1.00;97973;285;1003995;-32
2023/05/27 04:37:19;;;;;;;12.10;3.60;;;;;;;-128.00;-1.00;-1.00;97785;297;1003981;-29
2023/05/27 04:39:46;;;;;;;10.70;2.50;;;;;;;-128.00;-1.00;-1.00;97843;297;1003743;-31
2023/05/27 04:42:12;;;;;;;11.10;3.60;;;;;;;-128.00;-1.00;-1.00;98012;296;1003878;-28
2023/05/27 04:44:38;;;;;;;9.70;2.70;;;;;;;-128.00;-1.00;-1.00;98001;285;1004417;-31
2023/05/27 04:47:05;;;;;;;14.40;4.00;;;;;;;-128.00;-1.00;-1.00;97882;285;1003004;-30
2023/05/27 04:49:31;;;;;;;16.90;3.60;;;;;;;-128.00;-1.00;-1.00;97853;296;1003063;-30
2023/05/27 04:51:59;;;;;;;15.20;3.70;;;;;;;-128.00;-1.00;-1.00;97936;296;1004095;-34
2023/05/27 04:54:25;;;;;;;10.20;3.60;;;;;;;-128.00;-1.00;-1.00;97907;296;1003273;-33
2023/05/27 04:56:51;;;;;;;11.60;3.30;;;;;;;-128.00;-1.00;-1.00;97984;285;1004616;-36
2023/05/27 04:59:19;;;;;;;9.80;3.90;;;;;;;-128.00;-1.00;-1.00;97815;296;1002610;-34
2023/05/27 05:02:09;;;;;;;10.80;2.80;;;;;;;-128.00;-1.00;-1.00;97883;296;1002730;-34
2023/05/27 05:04:31;;;;;;;6.60;3.00;;;;;;;-128.00;-1.00;-1.00;97932;285;1002805;-33
2023/05/27 05:06:57;;;;;;;5.30;1.60;;;;;;;-128.00;-1.00;-1.00;97900;285;1005324;-31
2023/05/27 05:09:22;;;;;;;9.00;3.30;;;;;;;-128.00;-1.00;-1.00;97790;297;1004070;-33
2023/05/27 05:11:48;;;;;;;6.30;2.50;;;;;;;-128.00;-1.00;-1.00;97810;296;1003526;-30
2023/05/27 05:14:13;;;;;;;11.30;2.30;;;;;;;-128.00;-1.00;-1.00;97951;296;1002713;-35
2023/05/27 05:16:39;;;;;;;7.60;2.60;;;;;;;-128.00;-1.00;-1.00;97882;296;1005129;-34
2023/05/27 05:19:05;;;;;;;9.70;2.70;;;;;;;-128.00;-1.00;-1.00;97875;285;1003107;-36
2023/05/27 05:21:30;;;;;;;14.10;3.00;;;;;;;-128.00;-1.00;-1.00;97885;296;1003386;-34
2023/05/27 05:23:56;;;;;;;12.70;6.70;;;;;;;-128.00;-1.00;-1.00;97859;285;1003902;-30
2023/05/27 05:26:22;;;;;;;6.10;2.60;;;;;;;-128.00;-1.00;-1.00;97845;297;1004402;-34
2023/05/27 05:28:48;;;;;;;7.60;2.80;;;;;;;-128.00;-1.00;-1.00;97827;296;1003393;-30
2023/05/27 05:31:13;;;;;;;8.40;2.60;;;;;;;-128.00;-1.00;-1.00;97894;285;1003184;-35
2023/05/27 05:33:39;;;;;;;3.80;1.40;;;;;;;-128.00;-1.00;-1.00;97788;296;1003665;-38
2023/05/27 05:36:05;;;;;;;10.20;2.40;;;;;;;-128.00;-1.00;-1.00;97877;296;1003977;-30
2023/05/27 05:38:30;;;;;;;6.10;2.30;;;;;;;-128.00;-1.00;-1.00;97847;285;1003246;-34
2023/05/27 05:40:56;;;;;;;7.10;2.70;;;;;;;-128.00;-1.00;-1.00;97877;285;1004116;-30
2023/05/27 05:43:22;;;;;;;4.40;1.80;;;;;;;-128.00;-1.00;-1.00;97805;285;1002897;-35
2023/05/27 05:45:48;;;;;;;8.70;2.30;;;;;;;-128.00;-1.00;-1.00;96789;285;1753946;-31
2023/05/27 05:48:15;;;;;;;9.40;2.20;;;;;;;-128.00;-1.00;-1.00;90910;296;3002916;-34
2023/05/27 05:50:41;;;;;;;7.90;1.70;;;;;;;-128.00;-1.00;-1.00;19565;319;7504503;-31
2023/05/27 05:53:07;;;;;;;6.30;1.90;;;;;;;-128.00;-1.00;-1.00;87687;285;4503033;-36
2023/05/27 05:55:33;;;;;;;7.60;2.30;;;;;;;-128.00;-1.00;-1.00;29486;297;7504492;-34
2023/05/27 05:58:00;;;;;;;10.00;1.40;;;;;;;-128.00;-1.00;-1.00;83875;285;4503932;-35
2023/05/27 06:00:27;;;;;;;7.80;1.90;;;;;;;-128.00;-1.00;-1.00;19712;296;7505183;-32
2023/05/27 06:02:55;;;;;;;9.50;2.30;;;;;;;-128.00;-1.00;-1.00;19179;296;7506288;-36
2023/05/27 06:05:22;;;;;;;7.40;2.60;;;;;;;-128.00;-1.00;-1.00;18881;296;7504311;-35
2023/05/27 06:07:47;;;;;;;4.50;1.90;;;;;;;-128.00;-1.00;-1.00;18446;296;7505197;-32
2023/05/27 06:10:13;;;;;;;6.20;1.90;;;;;;;-128.00;-1.00;-1.00;18445;296;7504693;-32
2023/05/27 06:12:39;;;;;;;5.10;1.60;;;;;;;-128.00;-1.00;-1.00;18463;289;7505062;-35
2023/05/27 06:15:06;;;;;;;7.10;1.90;;;;;;;-128.00;-1.00;-1.00;21823;289;7504478;-31
2023/05/27 06:17:31;;;;;;;3.20;1.40;;;;;;;-128.00;-1.00;-1.00;97844;285;1003984;-37
2023/05/27 06:19:57;;;;;;;4.60;1.70;;;;;;;-128.00;-1.00;-1.00;97855;285;1004671;-33
2023/05/27 06:22:22;;;;;;;9.90;2.10;;;;;;;-128.00;-1.00;-1.00;97838;285;1003350;-35
2023/05/27 06:24:48;;;;;;;10.60;2.00;;;;;;;-128.00;-1.00;-1.00;97602;285;1004296;-33
2023/05/27 06:27:14;;;;;;;6.70;1.80;;;;;;;-128.00;-1.00;-1.00;97247;285;1002976;-30
2023/05/27 06:29:39;;;;;;;8.90;2.10;;;;;;;-128.00;-1.00;-1.00;97801;285;1003469;-36
2023/05/27 06:32:06;;;;;;;2.20;1.00;;;;;;;-128.00;-1.00;-1.00;97739;297;1003834;-35
2023/05/27 06:34:31;;;;;;;8.30;1.70;;;;;;;-128.00;-1.00;-1.00;97792;285;1004252;-36
2023/05/27 06:36:57;;;;;;;9.60;1.80;;;;;;;-128.00;-1.00;-1.00;97055;296;1202847;-35
2023/05/27 06:39:22;;;;;;;7.80;1.70;;;;;;;-128.00;-1.00;-1.00;97392;285;1754905;-31
2023/05/27 06:41:49;;;;;;;5.50;1.60;;;;;;;-128.00;-1.00;-1.00;92960;285;4503519;-35
2023/05/27 06:44:15;;;;;;;5.30;1.00;;;;;;;-128.00;-1.00;-1.00;93929;285;2203923;-35
2023/05/27 06:46:41;;;;;;;8.60;1.40;;;;;;;-128.00;-1.00;-1.00;97443;296;1004247;-31
2023/05/27 06:49:06;;;;;;;5.30;1.10;;;;;;;-128.00;-1.00;-1.00;91352;288;2853249;-34
2023/05/27 06:51:33;;;;;;;3.90;1.10;;;;;;;-128.00;-1.00;-1.00;97031;285;2052985;-38
2023/05/27 06:53:59;;;;;;;7.30;2.70;;;;;;;-128.00;-1.00;-1.00;55910;285;7503948;-32
2023/05/27 06:56:25;;;;;;;8.10;1.90;;;;;;;-128.00;-1.00;-1.00;53202;296;7504135;-35
2023/05/27 06:58:51;;;;;;;12.40;1.10;;;;;;;-128.00;-1.00;-1.00;19010;289;7504781;-32
2023/05/27 07:01:16;;;;;;;8.60;1.70;;;;;;;-128.00;-1.00;-1.00;19044;296;7505007;-32
2023/05/27 07:03:42;;;;;;;10.20;2.20;;;;;;;-128.00;-1.00;-1.00;18931;289;7504487;-36
2023/05/27 07:06:11;;;;;;;19.00;1.60;;;;;;;-128.00;-1.00;-1.00;20285;296;7504550;-36
2023/05/27 07:08:37;;;;;;;11.10;1.80;;;;;;;-128.00;-1.00;-1.00;18873;296;7505018;-35
2023/05/27 07:11:03;;;;;;;3.70;1.30;;;;;;;-128.00;-1.00;-1.00;18855;299;7504790;-34
2023/05/27 07:13:30;;;;;;;7.40;2.20;;;;;;;-128.00;-1.00;-1.00;18861;349;7504380;-36
2023/05/27 07:15:56;;;;;;;6.00;1.70;;;;;;;-128.00;-1.00;-1.00;18906;296;7505093;-32
2023/05/27 07:18:22;;;;;;;6.50;1.70;;;;;;;-128.00;-1.00;-1.00;18879;289;7505126;-36
2023/05/27 07:20:48;;;;;;;8.70;1.90;;;;;;;-128.00;-1.00;-1.00;18894;289;7504726;-33
2023/05/27 07:23:16;;;;;;;5.60;1.50;;;;;;;-128.00;-1.00;-1.00;18458;296;7505112;-33
2023/05/27 07:25:44;;;;;;;4.60;1.60;;;;;;;-128.00;-1.00;-1.00;18854;289;7505968;-37
2023/05/27 07:28:10;;;;;;;9.60;1.70;;;;;;;-128.00;-1.00;-1.00;18861;289;7504542;-37
2023/05/27 07:30:36;;;;;;;5.30;1.70;;;;;;;-128.00;-1.00;-1.00;18873;296;7504974;-33
2023/05/27 07:33:02;;;;;;;8.30;1.30;;;;;;;-128.00;-1.00;-1.00;18859;285;7504661;-36
2023/05/27 07:35:29;;;;;;;5.00;1.40;;;;;;;-128.00;-1.00;-1.00;18881;285;7504691;-42
2023/05/27 07:37:55;;;;;;;9.70;2.10;;;;;;;-128.00;-1.00;-1.00;18889;296;7504880;-36
2023/05/27 07:40:21;;;;;;;3.70;1.10;;;;;;;-128.00;-1.00;-1.00;18850;321;7505060;-32
2023/05/27 07:42:47;;;;;;;4.50;1.10;;;;;;;-128.00;-1.00;-1.00;18925;338;7504668;-32
2023/05/27 07:45:13;;;;;;;5.10;0.80;;;;;;;-128.00;-1.00;-1.00;18498;289;7504622;-35
2023/05/27 07:47:39;;;;;;;2.70;0.70;;;;;;;-128.00;-1.00;-1.00;18449;289;7505593;-36
2023/05/27 07:50:08;;;;;;;3.70;1.30;;;;;;;-128.00;-1.00;-1.00;20634;321;7504178;-32
2023/05/27 07:52:33;;;;;;;4.00;1.10;;;;;;;-128.00;-1.00;-1.00;68890;285;6931454;-35
2023/05/27 07:54:59;;;;;;;3.70;1.20;;;;;;;-128.00;-1.00;-1.00;97782;285;1004395;-41
2023/05/27 07:57:25;;;;;;;9.70;1.10;;;;;;;-128.00;-1.00;-1.00;97938;296;1002801;-30
2023/05/27 07:59:52;;;;;;;2.70;0.90;;;;;;;-128.00;-1.00;-1.00;97750;285;1003477;-32
2023/05/27 08:02:19;;;;;;;2.60;1.00;;;;;;;-128.00;-1.00;-1.00;97836;296;1003820;-31
2023/05/27 08:04:45;;;;;;;10.30;0.40;;;;;;;-128.00;-1.00;-1.00;97977;285;1004722;-37
2023/05/27 08:07:11;;;;;;;6.80;0.70;;;;;;;-128.00;-1.00;-1.00;97833;285;1004087;-37
2023/05/27 08:09:36;;;;;;;4.60;1.30;;;;;;;-128.00;-1.00;-1.00;97828;285;1003322;-33
2023/05/27 08:12:02;;;;;;;2.40;0.60;;;;;;;-128.00;-1.00;-1.00;97829;293;1005005;-33
2023/05/27 08:14:28;;;;;;;2.00;0.40;;;;;;;-128.00;-1.00;-1.00;97831;296;1003150;-32
2023/05/27 08:16:54;;;;;;;3.60;1.20;;;;;;;-128.00;-1.00;-1.00;97902;285;1004039;-33
2023/05/27 08:19:21;;;;;;;2.20;0.60;;;;;;;-128.00;-1.00;-1.00;97841;285;1003054;-34
2023/05/27 08:21:47;;;;;;;8.50;0.80;;;;;;;-128.00;-1.00;-1.00;97841;285;1004509;-36
2023/05/27 08:24:14;;;;;;;5.30;0.60;;;;;;;-128.00;-1.00;-1.00;97873;285;1003651;-31
2023/05/27 08:26:40;;;;;;;4.30;0.60;;;;;;;-128.00;-1.00;-1.00;97975;285;1004507;-35
2023/05/27 08:29:06;;;;;;;2.00;0.60;;;;;;;-128.00;-1.00;-1.00;97925;296;1003929;-31
2023/05/27 08:31:31;;;;;;;3.10;1.10;;;;;;;-128.00;-1.00;-1.00;97826;285;1004945;-37
2023/05/27 08:33:57;;;;;;;3.80;0.70;;;;;;;-128.00;-1.00;-1.00;97920;296;1003768;-38
2023/05/27 08:36:22;;;;;;;7.40;0.70;;;;;;;-128.00;-1.00;-1.00;97834;296;1003822;-36
2023/05/27 08:38:48;;;;;;;2.80;0.60;;;;;;;-128.00;-1.00;-1.00;97935;285;1003636;-33
2023/05/27 08:41:14;;;;;;;2.60;0.70;;;;;;;-128.00;-1.00;-1.00;97863;285;1004498;-37
2023/05/27 08:43:41;;;;;;;2.70;0.70;;;;;;;-128.00;-1.00;-1.00;97787;285;1002940;-31
2023/05/27 08:46:07;;;;;;;4.30;1.00;;;;;;;-128.00;-1.00;-1.00;97889;285;1002763;-37
2023/05/27 08:48:33;;;;;;;1.70;0.40;;;;;;;-128.00;-1.00;-1.00;97775;285;1003887;-33
2023/05/27 08:51:00;;;;;;;2.40;0.50;;;;;;;-128.00;-1.00;-1.00;97808;285;1002972;-32
2023/05/27 08:53:26;;;;;;;3.50;0.70;;;;;;;-128.00;-1.00;-1.00;97829;285;1003209;-33
2023/05/27 08:55:52;;;;;;;2.10;0.60;;;;;;;-128.00;-1.00;-1.00;98001;285;1004276;-30
2023/05/27 08:58:18;;;;;;;2.30;0.70;;;;;;;-128.00;-1.00;-1.00;97814;296;1003823;-35
2023/05/27 09:00:43;;;;;;;3.00;0.80;;;;;;;-128.00;-1.00;-1.00;97858;296;1003683;-31
2023/05/27 09:03:09;;;;;;;1.90;0.50;;;;;;;-128.00;-1.00;-1.00;97842;296;1003456;-32
2023/05/27 09:05:34;;;;;;;1.40;0.50;;;;;;;-128.00;-1.00;-1.00;97928;285;1003519;-32
2023/05/27 09:08:00;;;;;;;4.00;0.90;;;;;;;-128.00;-1.00;-1.00;97800;285;1002580;-32
2023/05/27 09:10:38;;;;;;;2.40;0.60;;;;;;;-128.00;-1.00;-1.00;97758;285;1004950;-31
2023/05/27 09:13:04;;;;;;;1.00;0.60;;;;;;;-128.00;-1.00;-1.00;97735;285;1003698;-36
2023/05/27 09:15:31;;;;;;;2.10;0.60;;;;;;;-128.00;-1.00;-1.00;97837;285;1003768;-35
2023/05/27 09:17:57;;;;;;;1.20;0.50;;;;;;;-128.00;-1.00;-1.00;97874;285;1002992;-35
2023/05/27 09:20:26;;;;;;;3.00;1.10;;;;;;;-128.00;-1.00;-1.00;97746;285;1004186;-38
2023/05/27 09:23:04;;;;;;;1.60;0.50;;;;;;;-128.00;-1.00;-1.00;97798;285;1003123;-35
2023/05/27 09:25:30;;;;;;;2.10;0.40;;;;;;;-128.00;-1.00;-1.00;97785;296;1002878;-37
2023/05/27 09:27:56;;;;;;;2.70;0.70;;;;;;;-128.00;-1.00;-1.00;97928;296;1003823;-36
2023/05/27 09:30:22;;;;;;;8.60;1.10;;;;;;;-128.00;-1.00;-1.00;97809;296;1004691;-33
2023/05/27 09:32:48;;;;;;;2.40;0.40;;;;;;;-128.00;-1.00;-1.00;97858;296;1003061;-37
2023/05/27 09:35:15;;;;;;;4.10;0.90;;;;;;;-128.00;-1.00;-1.00;97975;296;1003356;-31
2023/05/27 09:37:41;;;;;;;3.20;0.80;;;;;;;-128.00;-1.00;-1.00;97868;296;1002780;-31
2023/05/27 09:40:10;;;;;;;6.90;1.20;;;;;;;-128.00;-1.00;-1.00;97898;285;1003378;-40
2023/05/27 09:42:43;;;;;;;1.60;0.50;;;;;;;-128.00;-1.00;-1.00;97973;285;1002863;-35
2023/05/27 09:45:16;;;;;;;3.80;1.10;;;;;;;-128.00;-1.00;-1.00;97919;296;1003566;-36
2023/05/27 09:47:55;;;;;;;2.10;0.80;;;;;;;-128.00;-1.00;-1.00;97817;285;1002798;-36
2023/05/27 09:50:21;;;;;;;2.30;0.50;;;;;;;-128.00;-1.00;-1.00;97720;289;1004767;-36
2023/05/27 09:52:48;;;;;;;2.90;0.80;;;;;;;-128.00;-1.00;-1.00;97993;296;1003334;-34
2023/05/27 09:55:14;;;;;;;1.90;0.70;;;;;;;-128.00;-1.00;-1.00;97888;285;1003206;-36
2023/05/27 09:57:40;;;;;;;2.50;1.40;;;;;;;-128.00;-1.00;-1.00;89737;285;6003380;-33
2023/05/27 10:02:46;;;;;;;3.00;1.00;;;;;;;-128.00;-1.00;-1.00;96863;285;2052946;-35
2023/05/27 10:05:13;;;;;;;1.80;0.60;;;;;;;-128.00;-1.00;-1.00;97926;285;1003051;-33
2023/05/27 10:07:40;;;;;;;4.40;0.70;;;;;;;-128.00;-1.00;-1.00;97788;285;1002634;-31
2023/05/27 10:10:11;;;;;;;12.70;0.60;;;;;;;-128.00;-1.00;-1.00;97837;285;1003242;-37
2023/05/27 10:12:37;;;;;;;1.80;0.60;;;;;;;-128.00;-1.00;-1.00;97755;296;1003551;-33
2023/05/27 10:15:03;;;;;;;3.20;0.50;;;;;;;-128.00;-1.00;-1.00;97819;288;1003869;-33
2023/05/27 10:17:49;;;;;;;10.80;0.90;;;;;;;-128.00;-1.00;-1.00;80121;296;4502684;-37
2023/05/27 10:20:30;;;;;;;2.00;0.60;;;;;;;-128.00;-1.00;-1.00;64739;285;7504391;-38
2023/05/27 10:23:08;;;;;;;1.60;0.70;;;;;;;-128.00;-1.00;-1.00;97850;285;1003379;-37
2023/05/27 10:25:48;;;;;;;3.60;0.60;;;;;;;-128.00;-1.00;-1.00;97029;285;2353767;-36
2023/05/27 10:28:27;;;;;;;2.30;0.60;;;;;;;-128.00;-1.00;-1.00;97434;296;1003933;-37
2023/05/27 10:30:53;;;;;;;1.90;0.70;;;;;;;-128.00;-1.00;-1.00;95721;285;4003504;-37
2023/05/27 10:33:31;;;;;;;6.30;0.60;;;;;;;-128.00;-1.00;-1.00;97140;285;2203558;-36
2023/05/27 10:36:03;;;;;;;1.30;0.60;;;;;;;-128.00;-1.00;-1.00;97994;296;1002817;-35
2023/05/27 10:38:28;;;;;;;2.20;0.80;;;;;;;-128.00;-1.00;-1.00;97875;296;1003695;-37
2023/05/27 10:40:59;;;;;;;2.60;0.50;;;;;;;-128.00;-1.00;-1.00;97759;297;1003512;-29
2023/05/27 10:43:27;;;;;;;2.00;0.50;;;;;;;-128.00;-1.00;-1.00;97927;285;1002980;-37
2023/05/27 10:46:02;;;;;;;1.70;0.60;;;;;;;-128.00;-1.00;-1.00;97987;285;1004140;-37
2023/05/27 10:48:28;;;;;;;0.70;0.30;;;;;;;-128.00;-1.00;-1.00;97930;285;1005208;-37
2023/05/27 10:50:57;;;;;;;4.90;0.60;;;;;;;-128.00;-1.00;-1.00;97857;296;1003089;-38
2023/05/27 10:53:22;;;;;;;3.10;1.20;;;;;;;-128.00;-1.00;-1.00;97846;297;1003258;-33
2023/05/27 10:55:52;;;;;;;1.00;0.60;;;;;;;-128.00;-1.00;-1.00;97947;296;1003903;-31
2023/05/27 10:58:20;;;;;;;2.40;0.70;;;;;;;-128.00;-1.00;-1.00;57029;296;4914032;-32
2023/05/27 11:00:50;;;;;;;1.40;0.50;;;;;;;-128.00;-1.00;-1.00;19597;296;7505248;-32
2023/05/27 11:03:23;;;;;;;9.10;1.00;;;;;;;-128.00;-1.00;-1.00;18911;296;7504299;-33
2023/05/27 11:46:13;;;;;;;0.70;0.40;;;;;;;21.66;30.62;100282.11;100997;294;560110;-31
2023/05/27 11:48:42;;;;;;;1.00;0.50;;;;;;;22.08;30.02;100278.40;100924;288;490886;-35
2023/05/27 11:51:08;;;;;;;4.30;0.60;;;;;;;22.18;29.32;100274.17;101136;284;25216;-37
2023/05/27 11:53:38;;;;;;;2.40;0.90;;;;;;;22.04;30.04;100269.80;101235;294;25327;-35
2023/05/27 11:56:04;;;;;;;1.70;0.50;;;;;;;22.08;29.97;100266.11;101198;294;24117;-37
2023/05/27 11:58:30;;;;;;;4.20;0.40;;;;;;;22.00;30.34;100267.49;101080;294;25309;-32
2023/05/27 12:00:55;;;;;;;2.80;0.50;;;;;;;22.32;30.82;100260.52;101099;294;22574;-32
2023/05/27 12:03:21;;;;;;;1.40;0.50;;;;;;;22.69;29.49;100258.70;101213;294;22572;-35
2023/05/27 12:05:47;;;;;;;2.50;0.90;;;;;;;22.49;29.50;100258.83;101299;294;22572;-34
2023/05/27 12:08:12;;;;;;;3.00;0.80;;;;;;;22.48;29.79;100255.43;101170;294;22684;-31
2023/05/27 12:10:38;;;;;;;0.70;0.50;;;;;;;22.65;29.32;100254.70;101138;294;22582;-32